Time;durP1;ratioP1;P1;durP2;ratioP2;P2;SDS_P1;SDS_P2;PMS_P1;PMS_P2;Temp;Humidity;BMP_temperature;BMP_pressure;BME280_temperature;BME280_humidity;BME280_pressure;Samples;Min_cycle;Max_cycle;Signal;HPM_P1;HPM_P2
2021/09/30 00:01:35;;;;;;;0.40;0.20;;;8.70;99.90;;;;;;4972179;28;20385;-72
2021/09/30 00:04:01;;;;;;;0.50;0.50;;;8.60;99.90;;;;;;4975329;28;20443;-72
2021/09/30 00:06:29;;;;;;;0.40;0.20;;;8.60;99.90;;;;;;4976119;28;20395;-72
2021/09/30 00:08:54;;;;;;;0.40;0.30;;;8.50;99.90;;;;;;4975472;28;20912;-72
2021/09/30 00:11:31;;;;;;;0.40;0.20;;;8.60;99.90;;;;;;4976027;28;20471;-72
2021/09/30 00:33:24;;;;;;;0.40;0.30;;;8.30;99.90;;;;;;4975192;28;20414;-72
2021/09/30 00:46:23;;;;;;;0.40;0.30;;;8.20;99.90;;;;;;4992395;28;20406;-71
2021/09/30 01:52:57;;;;;;;0.40;0.20;;;8.00;99.90;;;;;;4974547;28;20880;-71
2021/09/30 01:58:37;;;;;;;0.40;0.28;;;7.90;99.90;;;;;;4973390;28;20428;-71
2021/09/30 02:58:34;;;;;;;0.40;0.20;;;7.30;99.90;;;;;;4992407;28;20564;-71
2021/09/30 03:01:10;;;;;;;0.40;0.30;;;7.40;99.90;;;;;;4991757;28;20716;-72
2021/09/30 03:03:37;;;;;;;0.40;0.30;;;7.40;99.90;;;;;;4992446;28;20393;-71
2021/09/30 03:06:07;;;;;;;0.40;0.20;;;7.30;99.90;;;;;;4991691;28;20389;-71
2021/09/30 03:08:41;;;;;;;0.40;0.22;;;7.20;99.90;;;;;;4974919;28;20743;-71
2021/09/30 03:11:08;;;;;;;0.40;0.30;;;7.30;99.90;;;;;;4991686;28;20387;-71
2021/09/30 03:13:34;;;;;;;0.40;0.30;;;7.40;99.90;;;;;;4992035;28;20486;-71
2021/09/30 03:16:04;;;;;;;0.40;0.30;;;7.30;99.90;;;;;;4991431;28;20386;-71
2021/09/30 03:23:38;;;;;;;0.40;0.30;;;7.10;99.90;;;;;;4992426;28;20393;-71
2021/09/30 03:26:04;;;;;;;0.40;0.30;;;7.10;99.90;;;;;;4991255;28;20409;-71
2021/09/30 03:28:31;;;;;;;0.40;0.30;;;7.20;99.90;;;;;;4992112;28;20395;-70
2021/09/30 03:30:59;;;;;;;0.40;0.30;;;7.20;99.90;;;;;;4992267;28;20405;-71
2021/09/30 03:33:26;;;;;;;0.40;0.30;;;7.10;99.90;;;;;;4992024;28;20382;-71
2021/09/30 03:35:53;;;;;;;0.40;0.30;;;7.00;99.90;;;;;;4991786;28;20390;-71
2021/09/30 03:38:21;;;;;;;0.40;0.20;;;7.00;99.90;;;;;;4990669;28;20417;-71
2021/09/30 03:40:46;;;;;;;0.40;0.20;;;7.00;99.90;;;;;;4991845;28;20485;-71
2021/09/30 03:43:13;;;;;;;0.40;0.30;;;7.00;99.90;;;;;;4991249;28;20501;-71
2021/09/30 03:45:39;;;;;;;0.40;0.20;;;7.00;99.90;;;;;;4980352;28;20730;-71
2021/09/30 03:48:06;;;;;;;0.40;0.20;;;6.90;99.90;;;;;;4971797;28;20409;-71
2021/09/30 03:50:40;;;;;;;0.40;0.30;;;6.90;99.90;;;;;;4972455;28;20391;-71
2021/09/30 03:53:14;;;;;;;0.40;0.30;;;6.80;99.90;;;;;;4971756;28;20487;-71
2021/09/30 04:01:09;;;;;;;0.40;0.30;;;6.90;99.90;;;;;;4971759;28;20876;-71
2021/09/30 04:03:35;;;;;;;0.40;0.20;;;6.90;99.90;;;;;;4972459;28;20381;-71
2021/09/30 04:06:01;;;;;;;0.40;0.30;;;6.90;99.90;;;;;;4972036;28;20388;-71
2021/09/30 04:08:28;;;;;;;0.40;0.20;;;6.80;99.90;;;;;;4972436;28;20564;-71
2021/09/30 04:10:53;;;;;;;0.40;0.20;;;6.90;99.90;;;;;;4972358;28;20380;-71
2021/09/30 04:13:19;;;;;;;0.40;0.20;;;6.00;99.90;;;;;;4971620;28;20391;-71
2021/09/30 04:15:47;;;;;;;0.40;0.30;;;6.80;99.90;;;;;;4972039;28;20507;-71
2021/09/30 04:18:12;;;;;;;0.40;0.20;;;6.80;99.90;;;;;;4971869;28;20530;-71
2021/09/30 04:20:38;;;;;;;0.40;0.30;;;6.70;99.90;;;;;;4972555;28;20484;-71
2021/09/30 04:23:04;;;;;;;0.40;0.30;;;6.90;99.90;;;;;;4971576;28;20421;-71
2021/09/30 04:25:30;;;;;;;0.40;0.20;;;6.70;99.90;;;;;;4972064;28;20458;-71
2021/09/30 04:27:56;;;;;;;0.40;0.20;;;6.60;99.90;;;;;;4972369;28;20890;-71
2021/09/30 04:30:21;;;;;;;0.40;0.30;;;6.70;99.90;;;;;;4971658;28;20741;-70
2021/09/30 04:32:47;;;;;;;0.40;0.30;;;6.70;99.90;;;;;;4972197;28;20895;-70
2021/09/30 04:35:13;;;;;;;0.40;0.30;;;6.60;99.90;;;;;;4971462;28;20470;-71
2021/09/30 04:37:38;;;;;;;0.40;0.30;;;6.70;99.90;;;;;;4972048;28;20396;-69
2021/09/30 04:40:05;;;;;;;0.40;0.30;;;6.80;99.90;;;;;;4971511;28;20442;-73
2021/09/30 04:42:30;;;;;;;0.40;0.30;;;6.70;99.90;;;;;;4971953;28;20453;-72
2021/09/30 04:44:56;;;;;;;0.40;0.20;;;6.70;99.90;;;;;;4971927;28;20396;-70
2021/09/30 04:47:22;;;;;;;0.40;0.30;;;6.70;99.90;;;;;;4971406;28;20380;-70
2021/09/30 04:49:47;;;;;;;0.40;0.30;;;6.70;99.90;;;;;;4973838;28;20392;-70
2021/09/30 04:52:13;;;;;;;0.40;0.30;;;6.70;99.90;;;;;;4974933;28;20399;-70
2021/09/30 04:54:39;;;;;;;0.40;0.30;;;6.60;99.90;;;;;;4975513;28;20466;-70
2021/09/30 04:57:05;;;;;;;0.40;0.20;;;6.70;99.90;;;;;;4990940;28;20790;-71
2021/09/30 04:59:31;;;;;;;0.80;0.80;;;6.60;99.90;;;;;;4994704;28;20410;-70
2021/09/30 05:01:56;;;;;;;0.40;0.30;;;6.60;99.90;;;;;;4994645;28;20393;-72
2021/09/30 05:04:22;;;;;;;0.40;0.30;;;6.60;99.90;;;;;;4994908;28;20731;-71
2021/09/30 05:06:47;;;;;;;0.40;0.20;;;6.70;99.90;;;;;;4995857;28;20387;-71
2021/09/30 05:09:13;;;;;;;0.40;0.30;;;6.50;99.90;;;;;;4994440;28;20942;-71
2021/09/30 05:11:47;;;;;;;0.40;0.30;;;6.60;99.90;;;;;;4994583;28;20480;-71
2021/09/30 05:14:13;;;;;;;0.40;0.30;;;6.50;99.90;;;;;;4994015;28;20433;-72
2021/09/30 05:16:38;;;;;;;0.40;0.40;;;6.60;99.90;;;;;;4994364;28;20417;-72
2021/09/30 05:19:04;;;;;;;0.40;0.30;;;6.60;99.90;;;;;;4976925;28;20410;-71
2021/09/30 05:21:31;;;;;;;0.40;0.30;;;6.60;99.90;;;;;;4993933;28;20383;-71
2021/09/30 05:23:57;;;;;;;0.40;0.20;;;6.60;99.90;;;;;;4977080;28;20402;-71
2021/09/30 05:26:22;;;;;;;0.40;0.20;;;6.60;99.90;;;;;;4993654;28;20403;-71
2021/09/30 05:28:48;;;;;;;0.40;0.27;;;6.50;99.90;;;;;;4994525;28;20599;-71
2021/09/30 05:31:14;;;;;;;0.40;0.20;;;6.10;99.90;;;;;;4993729;28;20374;-72
2021/09/30 05:33:39;;;;;;;0.40;0.30;;;6.70;99.90;;;;;;4994276;28;20474;-72
2021/09/30 05:36:05;;;;;;;0.40;0.27;;;6.50;99.90;;;;;;4994281;28;20390;-71
2021/09/30 05:38:31;;;;;;;0.40;0.30;;;6.50;99.90;;;;;;4993430;28;20472;-72
2021/09/30 05:40:56;;;;;;;0.40;0.30;;;6.60;99.90;;;;;;4994244;28;20425;-72
2021/09/30 05:43:26;;;;;;;0.40;0.20;;;6.60;99.90;;;;;;4993409;28;20390;-72
2021/09/30 05:45:55;;;;;;;0.40;0.30;;;6.60;99.90;;;;;;4994072;28;20852;-71
2021/09/30 05:48:21;;;;;;;0.40;0.30;;;6.60;99.90;;;;;;4993292;28;20386;-71
2021/09/30 05:50:47;;;;;;;0.40;0.20;;;6.50;99.90;;;;;;4993828;28;20488;-71
2021/09/30 05:53:13;;;;;;;0.40;0.30;;;6.80;99.90;;;;;;4993081;28;20379;-72
2021/09/30 05:55:38;;;;;;;0.40;0.20;;;6.80;99.90;;;;;;4993604;28;20398;-71
2021/09/30 05:58:04;;;;;;;0.40;0.30;;;6.70;99.90;;;;;;4993795;28;20413;-71
2021/09/30 06:10:58;;;;;;;0.40;0.30;;;6.70;99.90;;;;;;4993733;28;20385;-71
2021/09/30 06:13:30;;;;;;;0.40;0.20;;;6.70;99.90;;;;;;4992962;28;20469;-71
2021/09/30 06:15:56;;;;;;;0.40;0.30;;;6.80;99.90;;;;;;4993527;28;20457;-71
2021/09/30 06:18:22;;;;;;;0.40;0.30;;;6.80;99.90;;;;;;4992660;28;20418;-71
2021/09/30 06:20:48;;;;;;;0.40;0.20;;;6.80;99.90;;;;;;4993522;28;20478;-71
2021/09/30 06:23:13;;;;;;;0.70;0.70;;;6.80;99.90;;;;;;4992700;28;20383;-71
2021/09/30 06:25:39;;;;;;;0.40;0.20;;;6.60;99.90;;;;;;4993577;28;20402;-71
2021/09/30 06:28:05;;;;;;;0.40;0.30;;;6.80;99.90;;;;;;4975257;28;20414;-71
2021/09/30 06:30:31;;;;;;;0.40;0.30;;;7.00;99.90;;;;;;4992627;28;20398;-71
2021/09/30 06:32:57;;;;;;;0.40;0.30;;;7.00;99.90;;;;;;4993127;28;20855;-71
2021/09/30 06:35:23;;;;;;;0.40;0.20;;;7.20;99.90;;;;;;4992436;28;20804;-71
2021/09/30 06:37:49;;;;;;;0.40;0.20;;;7.00;99.90;;;;;;4993133;28;20526;-71
2021/09/30 06:40:14;;;;;;;0.40;0.30;;;7.10;99.90;;;;;;4992438;28;20383;-71
2021/09/30 06:42:41;;;;;;;0.40;0.30;;;7.30;99.90;;;;;;4992695;28;20541;-71
2021/09/30 06:45:07;;;;;;;0.40;0.20;;;7.30;99.90;;;;;;4992770;28;20383;-71
2021/09/30 06:47:39;;;;;;;0.40;0.30;;;7.20;99.90;;;;;;4992373;28;20387;-71
2021/09/30 06:50:07;;;;;;;0.40;0.20;;;7.40;99.90;;;;;;4992786;28;20389;-71
2021/09/30 06:52:33;;;;;;;0.40;0.30;;;7.40;99.90;;;;;;4991636;28;20541;-71
2021/09/30 06:54:59;;;;;;;0.40;0.30;;;7.50;99.90;;;;;;4992715;28;20870;-71
2021/09/30 06:57:28;;;;;;;0.40;0.30;;;7.40;99.90;;;;;;4992247;28;20540;-72
2021/09/30 06:59:58;;;;;;;0.40;0.30;;;7.60;99.90;;;;;;4992393;28;20508;-71
2021/09/30 07:02:23;;;;;;;0.40;0.20;;;7.70;99.90;;;;;;4992015;28;20405;-71
2021/09/30 07:04:49;;;;;;;0.40;0.20;;;7.80;99.90;;;;;;4992301;28;20375;-71
2021/09/30 07:07:15;;;;;;;0.40;0.30;;;8.00;99.90;;;;;;4991814;28;20428;-72
2021/09/30 07:09:41;;;;;;;0.40;0.20;;;8.00;99.90;;;;;;4992281;28;20391;-72
2021/09/30 07:12:07;;;;;;;0.40;0.30;;;8.10;99.90;;;;;;4991818;28;20386;-72
2021/09/30 07:14:33;;;;;;;0.40;0.30;;;8.20;99.90;;;;;;4991658;28;20774;-72
2021/09/30 07:16:59;;;;;;;0.40;0.30;;;8.30;99.90;;;;;;4975124;28;20489;-72
2021/09/30 07:19:24;;;;;;;0.40;0.20;;;8.40;99.90;;;;;;4991492;28;20424;-71
2021/09/30 07:21:51;;;;;;;0.40;0.30;;;8.40;99.90;;;;;;4992411;28;20394;-71
2021/09/30 07:24:16;;;;;;;0.40;0.25;;;8.40;99.90;;;;;;4991333;28;20383;-72
2021/09/30 07:26:43;;;;;;;0.40;0.20;;;8.60;99.90;;;;;;4991996;28;20417;-72
2021/09/30 07:29:08;;;;;;;0.40;0.30;;;8.60;99.90;;;;;;4992127;28;20390;-72
2021/09/30 07:31:34;;;;;;;0.40;0.30;;;8.60;99.90;;;;;;4991468;28;20489;-72
2021/09/30 07:34:00;;;;;;;0.40;0.20;;;8.80;99.90;;;;;;4992048;28;20385;-72
2021/09/30 07:36:25;;;;;;;0.40;0.30;;;8.90;99.90;;;;;;4991488;28;20386;-72
2021/09/30 07:38:51;;;;;;;0.70;0.70;;;9.00;99.90;;;;;;4992116;28;20417;-71
2021/09/30 07:41:17;;;;;;;0.40;0.20;;;9.00;99.90;;;;;;4991353;28;20919;-73
2021/09/30 07:43:42;;;;;;;0.40;0.40;;;9.10;99.90;;;;;;4992222;28;20532;-72
2021/09/30 07:46:08;;;;;;;0.40;0.30;;;9.10;99.90;;;;;;4975758;28;20396;-72
2021/09/30 07:48:34;;;;;;;0.40;0.20;;;9.20;99.90;;;;;;4954612;28;20396;-73
2021/09/30 07:51:00;;;;;;;0.40;0.30;;;9.40;99.90;;;;;;4972382;28;20852;-72
2021/09/30 07:53:26;;;;;;;0.40;0.20;;;9.50;99.90;;;;;;4971855;28;20492;-73
2021/09/30 07:55:52;;;;;;;0.40;0.30;;;9.50;99.90;;;;;;4972764;28;20490;-72
2021/09/30 07:58:19;;;;;;;0.40;0.20;;;9.60;99.90;;;;;;4971851;28;20412;-73
2021/09/30 08:00:45;;;;;;;0.40;0.20;;;9.70;99.90;;;;;;4972499;28;20383;-73
2021/09/30 08:03:11;;;;;;;0.40;0.20;;;9.90;99.90;;;;;;4972416;28;20380;-72
2021/09/30 08:05:37;;;;;;;0.43;0.33;;;9.90;99.90;;;;;;4971698;28;20385;-72
2021/09/30 08:08:07;;;;;;;0.40;0.30;;;10.00;99.90;;;;;;4972084;28;20896;-73
2021/09/30 08:10:34;;;;;;;0.40;0.30;;;10.10;99.90;;;;;;4971672;28;20416;-73
2021/09/30 08:13:00;;;;;;;0.40;0.20;;;10.10;99.90;;;;;;4972343;28;20455;-72
2021/09/30 08:15:26;;;;;;;0.40;0.30;;;10.20;99.90;;;;;;4971562;28;20726;-73
2021/09/30 08:17:52;;;;;;;0.40;0.30;;;10.30;99.90;;;;;;4971960;28;20427;-72
2021/09/30 08:20:19;;;;;;;0.40;0.30;;;10.40;99.90;;;;;;4971645;28;21070;-73
2021/09/30 08:22:46;;;;;;;0.40;0.20;;;10.40;99.90;;;;;;4972036;28;20866;-73
2021/09/30 08:25:11;;;;;;;0.40;0.30;;;10.50;99.90;;;;;;4976281;28;20932;-72
2021/09/30 08:27:37;;;;;;;0.40;0.30;;;10.50;99.90;;;;;;4975648;28;20930;-73
2021/09/30 08:30:03;;;;;;;0.40;0.20;;;10.60;99.90;;;;;;4975926;28;20434;-73
2021/09/30 08:32:29;;;;;;;0.40;0.20;;;10.70;99.90;;;;;;4975359;28;20399;-73
2021/09/30 08:34:55;;;;;;;0.40;0.20;;;10.90;99.90;;;;;;4976194;28;20392;-73
2021/09/30 08:37:20;;;;;;;0.40;0.30;;;10.80;99.90;;;;;;4975123;28;20857;-73
2021/09/30 08:39:46;;;;;;;0.40;0.30;;;11.00;99.90;;;;;;4975758;28;20474;-73
2021/09/30 08:42:12;;;;;;;0.40;0.30;;;11.00;99.90;;;;;;4975916;28;20395;-73
2021/09/30 08:44:38;;;;;;;0.40;0.28;;;11.10;99.90;;;;;;4978392;28;20866;-73
2021/09/30 08:47:04;;;;;;;0.40;0.30;;;11.20;99.90;;;;;;4995065;28;20441;-73
2021/09/30 08:49:31;;;;;;;0.40;0.30;;;11.20;99.90;;;;;;4994379;28;20502;-73
2021/09/30 08:51:56;;;;;;;0.40;0.20;;;11.30;99.90;;;;;;4995158;28;20537;-73
2021/09/30 08:54:22;;;;;;;0.40;0.20;;;11.40;99.90;;;;;;4994499;28;20414;-73
2021/09/30 08:56:48;;;;;;;0.40;0.20;;;11.60;99.90;;;;;;4994611;28;20501;-73
2021/09/30 08:59:17;;;;;;;0.40;0.30;;;11.60;99.90;;;;;;4994922;28;20410;-73
2021/09/30 09:01:46;;;;;;;0.40;0.30;;;11.70;99.90;;;;;;4994232;28;20386;-71
2021/09/30 09:04:20;;;;;;;0.40;0.20;;;11.80;99.90;;;;;;4994953;28;20418;-71
2021/09/30 09:06:48;;;;;;;0.40;0.20;;;11.80;99.90;;;;;;4994808;28;20571;-71
2021/09/30 09:09:29;;;;;;;0.40;0.30;;;11.90;99.90;;;;;;4994405;28;20393;-71
2021/09/30 09:11:56;;;;;;;0.40;0.30;;;11.90;99.90;;;;;;4994417;28;20461;-71
2021/09/30 09:14:25;;;;;;;0.40;0.30;;;11.90;99.90;;;;;;4994503;28;20387;-72
2021/09/30 09:17:00;;;;;;;0.40;0.30;;;12.00;99.90;;;;;;4994505;28;20430;-72
2021/09/30 09:19:36;;;;;;;0.40;0.20;;;12.10;99.90;;;;;;4993804;28;20481;-71
2021/09/30 09:22:09;;;;;;;0.40;0.20;;;12.20;99.90;;;;;;4994470;28;20477;-71
2021/09/30 09:24:35;;;;;;;0.40;0.30;;;12.50;99.90;;;;;;4994055;28;20766;-71
2021/09/30 09:27:01;;;;;;;0.40;0.20;;;12.70;99.90;;;;;;4976585;28;20406;-71
2021/09/30 09:29:30;;;;;;;0.40;0.20;;;12.70;99.90;;;;;;4993879;28;20469;-71
2021/09/30 09:31:56;;;;;;;0.40;0.20;;;12.70;99.90;;;;;;4976979;28;20449;-72
2021/09/30 09:34:36;;;;;;;0.40;0.30;;;12.60;99.90;;;;;;4975809;28;20883;-73
2021/09/30 09:37:38;;;;;;;0.40;0.30;;;12.80;99.90;;;;;;4994199;28;20383;-72
2021/09/30 09:40:18;;;;;;;0.40;0.20;;;12.80;99.90;;;;;;4994067;28;20934;-72
2021/09/30 09:42:45;;;;;;;0.40;0.30;;;13.00;99.90;;;;;;4993586;28;20426;-72
2021/09/30 09:45:13;;;;;;;0.40;0.20;;;13.10;99.90;;;;;;4986034;28;20397;-73
2021/09/30 09:47:41;;;;;;;0.40;0.30;;;13.10;99.90;;;;;;4956543;28;20908;-73
2021/09/30 09:50:14;;;;;;;0.40;0.20;;;13.20;99.90;;;;;;4974818;28;20400;-71
2021/09/30 09:52:55;;;;;;;0.40;0.20;;;13.30;99.40;;;;;;4973628;28;20891;-73
2021/09/30 09:55:28;;;;;;;0.40;0.30;;;13.10;99.90;;;;;;4974563;28;20396;-72
2021/09/30 09:58:18;;;;;;;0.40;0.30;;;13.20;99.90;;;;;;4974413;28;20392;-73
2021/09/30 10:00:49;;;;;;;0.40;0.20;;;13.30;99.90;;;;;;4963944;28;20416;-72
2021/09/30 10:03:22;;;;;;;0.40;0.30;;;13.50;99.00;;;;;;4974737;28;20828;-70
2021/09/30 10:05:49;;;;;;;0.40;0.20;;;13.50;98.30;;;;;;4974176;28;20447;-71
2021/09/30 10:08:15;;;;;;;0.40;0.30;;;13.40;99.10;;;;;;4974427;28;20399;-71
2021/09/30 10:10:42;;;;;;;0.40;0.20;;;13.40;99.20;;;;;;4973570;28;20741;-71
2021/09/30 10:13:08;;;;;;;0.40;0.30;;;13.40;98.70;;;;;;4974309;28;20383;-72
2021/09/30 10:15:35;;;;;;;0.40;0.20;;;13.40;99.80;;;;;;4973475;28;20385;-71
2021/09/30 10:18:08;;;;;;;0.40;0.30;;;13.50;98.90;;;;;;4973801;28;20510;-70
2021/09/30 10:20:35;;;;;;;0.40;0.30;;;13.60;99.00;;;;;;4973475;28;20389;-71
2021/09/30 10:23:05;;;;;;;0.40;0.30;;;13.70;98.90;;;;;;4973716;28;20392;-70
2021/09/30 10:25:43;;;;;;;0.40;0.30;;;13.80;98.70;;;;;;4973464;28;20407;-70
2021/09/30 10:28:12;;;;;;;0.40;0.40;;;13.80;98.10;;;;;;4974034;28;20412;-72
2021/09/30 10:30:43;;;;;;;0.40;0.30;;;13.90;98.60;;;;;;4973514;28;20393;-72
2021/09/30 10:33:15;;;;;;;0.40;0.20;;;14.00;98.10;;;;;;4973766;28;20395;-70
2021/09/30 10:35:43;;;;;;;0.40;0.30;;;13.90;97.80;;;;;;4973234;28;20384;-71
2021/09/30 10:38:19;;;;;;;0.40;0.30;;;14.00;97.20;;;;;;4973604;28;20420;-70
2021/09/30 10:41:09;;;;;;;0.40;0.20;;;13.90;97.50;;;;;;4973173;28;21131;-71
2021/09/30 10:43:42;;;;;;;0.40;0.20;;;14.00;99.20;;;;;;4973159;28;20487;-70
2021/09/30 10:46:34;;;;;;;0.40;0.30;;;14.20;97.20;;;;;;4988657;28;20411;-72
2021/09/30 10:49:19;;;;;;;0.40;0.30;;;14.50;97.90;;;;;;4973494;28;20426;-70
2021/09/30 10:52:17;;;;;;;1.00;1.00;;;14.60;95.30;;;;;;4974783;28;20807;-69
2021/09/30 10:54:47;;;;;;;0.40;0.25;;;14.50;95.30;;;;;;4992071;28;20418;-71
2021/09/30 10:57:38;;;;;;;0.40;0.30;;;14.80;95.90;;;;;;4992886;28;20486;-71
2021/09/30 11:00:18;;;;;;;0.40;0.30;;;14.90;97.20;;;;;;4992575;28;20509;-71
2021/09/30 11:03:01;;;;;;;0.40;0.30;;;15.10;93.90;;;;;;4991849;28;20469;-70
2021/09/30 11:05:32;;;;;;;0.40;0.30;;;15.30;91.60;;;;;;4992042;28;20446;-74
2021/09/30 11:08:16;;;;;;;0.40;0.30;;;15.10;92.10;;;;;;4992344;28;20906;-69
2021/09/30 11:11:11;;;;;;;0.40;0.20;;;15.30;92.30;;;;;;4992022;28;20457;-70
2021/09/30 11:13:43;;;;;;;0.40;0.20;;;15.70;90.70;;;;;;4991909;28;20391;-70
2021/09/30 11:16:10;;;;;;;0.40;0.30;;;15.60;90.60;;;;;;4992471;28;20390;-72
2021/09/30 11:18:53;;;;;;;0.40;0.30;;;16.20;90.90;;;;;;4991646;28;20417;-70
2021/09/30 11:21:40;;;;;;;0.40;0.20;;;17.20;87.90;;;;;;4992358;28;20390;-70
2021/09/30 11:24:27;;;;;;;0.40;0.28;;;17.80;81.00;;;;;;4985675;28;20414;-70
2021/09/30 11:26:53;;;;;;;0.40;0.30;;;18.00;78.70;;;;;;4991269;28;20410;-70
2021/09/30 11:29:21;;;;;;;0.40;0.30;;;18.10;76.80;;;;;;4992349;28;20811;-71
2021/09/30 11:31:47;;;;;;;0.40;0.30;;;18.80;74.30;;;;;;4991477;28;20390;-71
2021/09/30 11:34:24;;;;;;;0.40;0.30;;;18.60;72.00;;;;;;4992197;28;20389;-69
2021/09/30 11:36:51;;;;;;;0.40;0.30;;;18.40;72.30;;;;;;4991232;28;20809;-73
2021/09/30 11:39:17;;;;;;;0.40;0.30;;;18.40;72.00;;;;;;4992057;28;20415;-73
2021/09/30 11:41:45;;;;;;;0.40;0.20;;;18.50;75.70;;;;;;4991370;28;20477;-72
2021/09/30 11:44:19;;;;;;;0.40;0.30;;;18.50;74.10;;;;;;4991737;28;20859;-73
2021/09/30 11:46:54;;;;;;;0.40;0.30;;;18.60;70.90;;;;;;4968402;28;20407;-73
2021/09/30 11:49:20;;;;;;;0.40;0.20;;;19.20;72.70;;;;;;4972252;28;20388;-74
2021/09/30 11:51:51;;;;;;;0.40;0.20;;;19.70;71.20;;;;;;4971159;28;20380;-75
2021/09/30 11:54:34;;;;;;;0.40;0.20;;;19.50;70.40;;;;;;4972051;28;20416;-75
2021/09/30 11:56:59;;;;;;;0.40;0.20;;;19.30;73.60;;;;;;4972719;28;20928;-74
2021/09/30 11:59:28;;;;;;;0.40;0.30;;;18.50;69.60;;;;;;4971658;28;20470;-74
2021/09/30 12:01:55;;;;;;;0.40;0.30;;;18.30;71.70;;;;;;4971381;28;20393;-74
2021/09/30 12:04:50;;;;;;;0.40;0.30;;;18.10;75.00;;;;;;4971582;28;20402;-72
2021/09/30 12:07:23;;;;;;;0.40;0.20;;;19.00;72.50;;;;;;4972034;28;20388;-71
2021/09/30 12:09:51;;;;;;;0.50;0.40;;;19.10;70.50;;;;;;4953826;28;20438;-72
2021/09/30 12:12:17;;;;;;;0.40;0.30;;;18.30;69.80;;;;;;4971993;28;20440;-73
2021/09/30 12:14:48;;;;;;;0.40;0.30;;;18.80;70.90;;;;;;4971007;28;20592;-74
2021/09/30 12:17:16;;;;;;;0.40;0.30;;;18.50;74.20;;;;;;4971979;28;20392;-72
2021/09/30 12:19:48;;;;;;;0.40;0.25;;;18.00;75.90;;;;;;4970878;28;20439;-73
2021/09/30 12:22:17;;;;;;;0.40;0.20;;;18.00;73.40;;;;;;4954148;28;20567;-73
2021/09/30 12:24:52;;;;;;;0.40;0.25;;;18.40;74.70;;;;;;4971229;28;20423;-73
2021/09/30 12:27:21;;;;;;;0.40;0.20;;;18.30;76.50;;;;;;4982800;28;20936;-73
2021/09/30 12:29:52;;;;;;;0.40;0.30;;;18.80;69.60;;;;;;4989569;28;20382;-71
2021/09/30 12:32:27;;;;;;;0.40;0.30;;;18.40;70.50;;;;;;4990942;28;20748;-70
2021/09/30 12:35:26;;;;;;;0.40;0.30;;;18.00;70.40;;;;;;4990226;28;20437;-71
2021/09/30 12:37:58;;;;;;;0.40;0.20;;;16.80;76.50;;;;;;4990333;28;21278;-72
2021/09/30 12:40:27;;;;;;;0.40;0.30;;;17.00;75.90;;;;;;4990926;28;20402;-72
2021/09/30 12:42:58;;;;;;;0.40;0.22;;;17.50;73.70;;;;;;4990182;28;20413;-71
2021/09/30 12:45:24;;;;;;;0.40;0.20;;;18.40;73.40;;;;;;4990878;28;20399;-71
2021/09/30 12:48:01;;;;;;;0.40;0.30;;;18.10;71.10;;;;;;4989476;28;20964;-71
2021/09/30 12:50:35;;;;;;;0.40;0.30;;;17.70;70.90;;;;;;4973214;28;20506;-72
2021/09/30 12:53:02;;;;;;;0.40;0.30;;;18.40;75.00;;;;;;4990867;28;20425;-72
2021/09/30 12:55:29;;;;;;;0.40;0.30;;;18.70;72.30;;;;;;4990779;28;20390;-71
2021/09/30 12:57:55;;;;;;;0.40;0.20;;;18.20;68.10;;;;;;4990131;28;20391;-71
2021/09/30 13:00:22;;;;;;;0.40;0.30;;;18.00;68.80;;;;;;4989449;28;20395;-72
2021/09/30 13:02:54;;;;;;;0.40;0.30;;;17.70;71.80;;;;;;4990909;28;20391;-72
2021/09/30 13:05:21;;;;;;;0.40;0.30;;;17.40;74.30;;;;;;4989982;28;20387;-73
2021/09/30 13:07:52;;;;;;;0.40;0.20;;;17.70;74.50;;;;;;4988888;28;20390;-73
2021/09/30 13:10:19;;;;;;;0.40;0.30;;;17.90;74.80;;;;;;4990093;28;20406;-73
2021/09/30 13:13:13;;;;;;;0.40;0.30;;;18.20;75.60;;;;;;4992453;28;20744;-73
2021/09/30 13:15:44;;;;;;;0.40;0.20;;;18.50;71.80;;;;;;4992759;28;20382;-74
2021/09/30 13:18:15;;;;;;;0.40;0.30;;;18.20;72.90;;;;;;4993267;28;20417;-73
2021/09/30 13:20:43;;;;;;;0.40;0.30;;;19.40;66.70;;;;;;4992364;28;20387;-74
2021/09/30 13:23:10;;;;;;;0.40;0.20;;;18.60;64.80;;;;;;4993044;28;20398;-74
2021/09/30 13:25:37;;;;;;;0.40;0.30;;;18.50;69.30;;;;;;4993101;28;20437;-74
2021/09/30 13:28:03;;;;;;;0.40;0.20;;;18.00;67.60;;;;;;4991869;28;20410;-73
2021/09/30 13:30:35;;;;;;;0.40;0.30;;;18.90;66.60;;;;;;4993188;28;20392;-73
2021/09/30 13:33:02;;;;;;;0.40;0.20;;;18.60;64.20;;;;;;4992592;28;20425;-74
2021/09/30 13:35:32;;;;;;;0.40;0.30;;;19.30;67.40;;;;;;4993524;28;20743;-72
2021/09/30 13:37:59;;;;;;;0.40;0.20;;;18.10;63.70;;;;;;4988482;28;20391;-74
2021/09/30 13:40:26;;;;;;;0.40;0.20;;;17.50;64.20;;;;;;4988923;28;20394;-73
2021/09/30 13:42:52;;;;;;;0.40;0.30;;;18.10;68.30;;;;;;4990479;28;20886;-73
2021/09/30 13:45:20;;;;;;;0.40;0.28;;;19.00;68.90;;;;;;4985067;28;20394;-73
2021/09/30 13:47:46;;;;;;;0.40;0.30;;;19.30;68.90;;;;;;4972006;28;20950;-74
2021/09/30 13:50:19;;;;;;;0.40;0.20;;;19.20;69.20;;;;;;4957155;28;20403;-73
2021/09/30 13:52:46;;;;;;;0.40;0.28;;;19.50;63.60;;;;;;4973271;28;20388;-73
2021/09/30 13:55:14;;;;;;;0.40;0.20;;;17.80;61.80;;;;;;4973222;28;20395;-73
2021/09/30 13:57:40;;;;;;;0.40;0.30;;;18.20;63.50;;;;;;4982000;28;20395;-74
2021/09/30 14:00:10;;;;;;;0.40;0.30;;;18.10;65.70;;;;;;4992679;28;20468;-73
2021/09/30 14:02:38;;;;;;;0.40;0.30;;;18.20;68.30;;;;;;4992483;28;20416;-73
2021/09/30 14:05:05;;;;;;;0.40;0.30;;;19.00;63.60;;;;;;4992304;28;20477;-73
2021/09/30 14:07:31;;;;;;;0.40;0.20;;;18.90;66.10;;;;;;4992796;28;20736;-72
2021/09/30 14:10:00;;;;;;;0.40;0.30;;;18.70;65.30;;;;;;4991676;28;20449;-73
2021/09/30 14:12:26;;;;;;;0.40;0.40;;;18.10;66.00;;;;;;4992519;28;20386;-73
2021/09/30 14:14:51;;;;;;;0.40;0.30;;;18.50;69.20;;;;;;4991805;28;20437;-73
2021/09/30 14:17:17;;;;;;;0.40;0.20;;;18.30;69.50;;;;;;4975195;28;20391;-73
2021/09/30 14:19:43;;;;;;;0.40;0.30;;;18.70;65.70;;;;;;4990741;28;20406;-74
2021/09/30 14:22:09;;;;;;;0.40;0.30;;;18.40;65.30;;;;;;4991326;28;20433;-73
2021/09/30 14:24:35;;;;;;;0.40;0.20;;;19.10;67.80;;;;;;4993868;28;20383;-73
2021/09/30 14:27:02;;;;;;;0.40;0.30;;;19.10;68.60;;;;;;4992953;28;20407;-73
2021/09/30 14:29:27;;;;;;;0.40;0.30;;;19.10;70.00;;;;;;4993049;28;20395;-71
2021/09/30 14:31:53;;;;;;;0.40;0.30;;;19.00;68.70;;;;;;4991535;28;20398;-71
2021/09/30 14:34:19;;;;;;;0.40;0.30;;;19.20;65.60;;;;;;4992882;28;20438;-72
2021/09/30 14:36:44;;;;;;;0.40;0.30;;;17.90;68.50;;;;;;4992113;28;20694;-72
2021/09/30 14:39:11;;;;;;;0.40;0.30;;;18.50;75.10;;;;;;4992413;28;20533;-70
2021/09/30 14:41:37;;;;;;;0.40;0.20;;;18.60;67.30;;;;;;4993051;28;20386;-70
2021/09/30 14:44:05;;;;;;;0.40;0.20;;;18.50;66.90;;;;;;4992192;28;20733;-72
2021/09/30 14:46:31;;;;;;;0.40;0.30;;;18.60;68.00;;;;;;4974085;28;20447;-70
2021/09/30 14:48:56;;;;;;;0.40;0.30;;;18.90;65.60;;;;;;4972355;28;20749;-72
2021/09/30 14:51:22;;;;;;;0.40;0.30;;;18.70;66.90;;;;;;4973119;28;20388;-71
2021/09/30 14:53:48;;;;;;;0.40;0.20;;;18.10;64.70;;;;;;4972311;28;20416;-70
2021/09/30 14:56:14;;;;;;;0.40;0.20;;;18.40;66.10;;;;;;4972838;28;20388;-71
2021/09/30 14:58:39;;;;;;;0.40;0.20;;;17.80;66.50;;;;;;4972673;28;20452;-70
2021/09/30 15:01:06;;;;;;;0.40;0.30;;;18.10;66.00;;;;;;4971772;28;20459;-72
2021/09/30 15:03:32;;;;;;;0.40;0.20;;;17.60;72.30;;;;;;4972908;28;20872;-71
2021/09/30 15:05:58;;;;;;;0.40;0.30;;;17.80;73.00;;;;;;4971827;28;20446;-71
2021/09/30 15:08:23;;;;;;;0.40;0.20;;;17.80;69.20;;;;;;4972707;28;20396;-72
2021/09/30 15:10:49;;;;;;;0.40;0.30;;;18.60;71.00;;;;;;4954644;28;20451;-71
2021/09/30 15:13:15;;;;;;;0.40;0.20;;;18.00;73.90;;;;;;4955472;28;20400;-72
2021/09/30 15:15:43;;;;;;;0.40;0.30;;;18.40;71.60;;;;;;4972381;28;20384;-72
2021/09/30 15:18:11;;;;;;;0.40;0.20;;;17.70;72.40;;;;;;4983237;28;20426;-71
2021/09/30 15:23:18;;;;;;;0.40;0.30;;;18.30;72.10;;;;;;4982503;28;20965;-72
2021/09/30 15:25:46;;;;;;;0.40;0.30;;;17.80;72.10;;;;;;4983239;28;20490;-72
2021/09/30 15:28:15;;;;;;;0.40;0.30;;;17.70;72.60;;;;;;4984953;28;20744;-72
2021/09/30 15:30:42;;;;;;;0.40;0.30;;;17.00;77.10;;;;;;4984292;28;20440;-72
2021/09/30 15:33:10;;;;;;;0.40;0.30;;;17.40;74.70;;;;;;4982507;28;20397;-72
2021/09/30 15:35:37;;;;;;;0.40;0.20;;;17.90;73.20;;;;;;4983486;28;20399;-73
2021/09/30 15:38:04;;;;;;;0.40;0.28;;;17.50;76.10;;;;;;4982438;28;20449;-72
2021/09/30 15:40:29;;;;;;;0.40;0.20;;;17.60;70.40;;;;;;4984130;28;20394;-72
2021/09/30 15:42:55;;;;;;;0.40;0.20;;;17.70;73.90;;;;;;4982844;28;20417;-72
2021/09/30 15:45:21;;;;;;;0.40;0.30;;;17.70;71.20;;;;;;4984121;28;20771;-72
2021/09/30 15:47:47;;;;;;;0.40;0.30;;;17.50;72.30;;;;;;4965466;28;20903;-72
2021/09/30 15:50:13;;;;;;;0.40;0.20;;;17.30;75.50;;;;;;4983493;28;20409;-72
2021/09/30 15:52:38;;;;;;;0.40;0.20;;;17.30;77.00;;;;;;4983053;28;20883;-71
2021/09/30 15:55:05;;;;;;;0.40;0.30;;;17.10;73.40;;;;;;4981298;28;20798;-72
2021/09/30 15:57:35;;;;;;;0.40;0.20;;;16.90;74.30;;;;;;4978652;28;20392;-73